createdAt,value
2018-11-10T00:00:37.069Z,55.78
2018-11-10T00:03:18.837Z,59.25
2018-11-10T00:06:00.542Z,55.08
2018-11-10T00:08:42.033Z,50.55
2018-11-10T00:11:24.191Z,52.78
2018-11-10T00:14:06.582Z,57.48
2018-11-10T00:16:48.239Z,52.85
2018-11-10T00:19:30.493Z,51.85
2018-11-10T00:22:12.568Z,56.02
2018-11-10T00:24:54.567Z,52.67
2018-11-10T00:27:36.951Z,53.28
2018-11-10T00:30:19.473Z,53.95
2018-11-10T00:33:02.146Z,49.38
2018-11-10T00:35:44.523Z,52.43
2018-11-10T00:38:26.298Z,53.23
2018-11-10T00:41:08.242Z,51.45
2018-11-10T00:43:50.340Z,50.63
2018-11-10T00:46:32.522Z,49.18
2018-11-10T00:49:14.360Z,50.58
2018-11-10T00:51:56.062Z,54.30
2018-11-10T00:54:37.735Z,48.70
2018-11-10T00:57:19.782Z,49.42
2018-11-10T01:00:01.855Z,52.80
2018-11-10T01:02:45.102Z,51.20
2018-11-10T01:05:28.338Z,46.10
2018-11-10T01:08:10.784Z,46.90
2018-11-10T01:10:52.919Z,43.70
2018-11-10T01:13:34.573Z,43.92
2018-11-10T01:16:16.572Z,42.78
2018-11-10T01:18:58.263Z,45.65
2018-11-10T01:21:40.579Z,45.85
2018-11-10T01:24:22.723Z,47.20
2018-11-10T01:27:05.088Z,47.10
2018-11-10T01:29:46.849Z,46.63
2018-11-10T01:32:29.289Z,50.05
2018-11-10T01:35:11.097Z,44.67
2018-11-10T01:37:53.531Z,43.58
2018-11-10T01:40:35.484Z,48.30
2018-11-10T01:43:18.997Z,43.58
2018-11-10T01:46:00.992Z,46.92
2018-11-10T01:48:43.063Z,48.85
2018-11-10T01:51:25.371Z,45.98
2018-11-10T01:54:06.987Z,45.05
2018-11-10T01:56:49.380Z,44.60
2018-11-10T01:59:31.027Z,44.85
2018-11-10T02:02:13.049Z,38.15
2018-11-10T02:04:55.432Z,44.93
2018-11-10T02:07:37.592Z,44.08
2018-11-10T02:10:19.619Z,45.67
2018-11-10T02:13:01.432Z,43.23
2018-11-10T02:15:44.067Z,40.95
2018-11-10T02:18:26.809Z,40.60
2018-11-10T02:21:08.619Z,40.83
2018-11-10T02:23:50.290Z,42.38
2018-11-10T02:26:32.827Z,43.23
2018-11-10T02:29:14.855Z,42.88
2018-11-10T02:31:56.576Z,39.53
2018-11-10T02:34:38.548Z,47.43
2018-11-10T02:37:20.428Z,43.10
2018-11-10T02:40:02.181Z,42.60
2018-11-10T02:42:45.023Z,38.00
2018-11-10T02:45:27.359Z,43.17
2018-11-10T02:48:09.452Z,45.10
2018-11-10T02:50:51.331Z,43.13
2018-11-10T02:53:33.278Z,43.38
2018-11-10T02:56:15.707Z,48.68
2018-11-10T02:58:57.994Z,43.85
2018-11-10T03:01:39.802Z,45.65
2018-11-10T03:04:21.879Z,47.23
2018-11-10T03:07:03.975Z,50.17
2018-11-10T03:09:46.496Z,50.03
2018-11-10T03:12:28.484Z,52.05
2018-11-10T03:15:11.518Z,45.58
2018-11-10T03:17:53.926Z,44.42
2018-11-10T03:20:36.075Z,48.90
2018-11-10T03:23:18.197Z,44.70
2018-11-10T03:26:00.844Z,48.60
2018-11-10T03:28:43.009Z,45.92
2018-11-10T03:31:24.735Z,52.62
2018-11-10T03:34:06.869Z,47.55
2018-11-10T03:36:48.921Z,51.75
2018-11-10T03:39:30.875Z,50.00
2018-11-10T03:42:13.000Z,47.43
2018-11-10T03:44:55.025Z,47.03
2018-11-10T03:47:37.395Z,52.75
2018-11-10T03:50:19.582Z,48.85
2018-11-10T03:53:01.540Z,50.40
2018-11-10T03:55:43.536Z,52.70
2018-11-10T03:58:25.529Z,55.65
2018-11-10T04:01:07.334Z,50.25
2018-11-10T04:03:49.728Z,56.28
2018-11-10T04:06:38.382Z,53.30
2018-11-10T04:09:20.610Z,56.70
2018-11-10T04:12:02.731Z,51.55
2018-11-10T04:14:44.481Z,47.83
2018-11-10T04:17:26.483Z,49.90
2018-11-10T04:20:10.207Z,49.65
2018-11-10T04:22:52.270Z,60.40
2018-11-10T04:25:34.332Z,70.30
2018-11-10T04:28:16.031Z,62.95
2018-11-10T04:30:57.999Z,61.50
2018-11-10T04:33:40.436Z,66.67
2018-11-10T04:36:22.623Z,65.52
2018-11-10T04:39:06.675Z,60.55
2018-11-10T04:41:48.751Z,61.40
2018-11-10T04:44:30.468Z,60.55
2018-11-10T04:47:12.231Z,51.63
2018-11-10T04:49:54.653Z,64.97
2018-11-10T04:52:37.070Z,59.60
2018-11-10T04:55:19.468Z,67.35
2018-11-10T04:58:02.067Z,67.10
2018-11-10T05:00:43.982Z,60.48
2018-11-10T05:03:26.068Z,61.98
2018-11-10T05:06:08.491Z,65.28
2018-11-10T05:08:50.587Z,66.02
2018-11-10T05:11:32.578Z,66.90
2018-11-10T05:14:14.779Z,63.63
2018-11-10T05:16:56.976Z,56.65
2018-11-10T05:19:38.567Z,56.55
2018-11-10T05:22:20.592Z,58.40
2018-11-10T05:25:02.562Z,55.00
2018-11-10T05:27:44.308Z,52.88
2018-11-10T05:30:26.247Z,63.42
2018-11-10T05:33:07.918Z,61.50
2018-11-10T05:35:49.730Z,70.62
2018-11-10T05:38:31.508Z,66.50
2018-11-10T05:41:13.119Z,68.28
2018-11-10T05:43:54.799Z,70.65
2018-11-10T05:46:37.009Z,60.30
2018-11-10T05:49:19.196Z,56.85
2018-11-10T05:52:01.371Z,65.40
2018-11-10T05:54:43.224Z,62.45
2018-11-10T05:57:25.381Z,64.32
2018-11-10T06:00:10.497Z,63.83
2018-11-10T06:02:52.498Z,80.45
2018-11-10T06:05:34.513Z,84.20
2018-11-10T06:08:16.276Z,78.83
2018-11-10T06:10:58.632Z,85.72
2018-11-10T06:13:40.408Z,72.08
2018-11-10T06:16:22.693Z,76.53
2018-11-10T06:19:04.927Z,78.45
2018-11-10T06:21:47.447Z,81.12
2018-11-10T06:24:29.235Z,85.12
2018-11-10T06:27:11.255Z,86.02
2018-11-10T06:29:54.488Z,84.42
2018-11-10T06:32:36.954Z,78.28
2018-11-10T06:35:19.180Z,79.70
2018-11-10T06:38:01.551Z,83.47
2018-11-10T06:40:43.792Z,81.78
2018-11-10T06:43:25.419Z,75.95
2018-11-10T06:46:08.259Z,77.25
2018-11-10T06:48:50.080Z,68.85
2018-11-10T06:51:31.810Z,70.67
2018-11-10T06:54:13.829Z,71.90
2018-11-10T06:56:56.029Z,67.47
2018-11-10T06:59:38.809Z,66.95
2018-11-10T07:02:21.161Z,61.85
2018-11-10T07:05:03.599Z,66.10
2018-11-10T07:07:44.995Z,60.58
2018-11-10T07:10:26.795Z,62.33
2018-11-10T07:13:08.837Z,65.32
2018-11-10T07:15:50.950Z,58.10
2018-11-10T07:18:33.374Z,54.73
2018-11-10T07:21:15.904Z,56.25
2018-11-10T07:23:58.034Z,52.90
2018-11-10T07:26:40.688Z,60.33
2018-11-10T07:29:22.545Z,53.70
2018-11-10T07:32:05.005Z,54.67
2018-11-10T07:34:46.782Z,57.27
2018-11-10T07:37:29.478Z,52.43
2018-11-10T07:40:13.030Z,52.33
2018-11-10T07:42:54.831Z,51.57
2018-11-10T07:45:37.272Z,51.42
2018-11-10T07:48:19.713Z,55.70
2018-11-10T07:51:02.315Z,53.07
2018-11-10T07:53:44.670Z,51.63
2018-11-10T07:56:28.360Z,44.30
2018-11-10T07:59:11.765Z,42.15
2018-11-10T08:01:53.379Z,42.80
2018-11-10T08:04:35.211Z,43.33
2018-11-10T08:07:17.351Z,40.80
2018-11-10T08:09:59.499Z,38.00
2018-11-10T08:12:41.713Z,40.53
2018-11-10T08:15:23.912Z,36.90
2018-11-10T08:18:06.128Z,37.33
2018-11-10T08:20:47.907Z,35.57
2018-11-10T08:23:29.720Z,34.63
2018-11-10T08:26:12.122Z,35.07
2018-11-10T08:28:54.335Z,34.13
2018-11-10T08:31:35.756Z,30.43
2018-11-10T08:34:17.905Z,33.17
2018-11-10T08:36:59.651Z,31.50
2018-11-10T08:39:42.448Z,30.50
2018-11-10T08:42:23.902Z,29.83
2018-11-10T08:45:07.133Z,27.80
2018-11-10T08:47:48.780Z,27.07
2018-11-10T08:50:30.460Z,29.27
2018-11-10T08:53:11.863Z,26.23
2018-11-10T08:55:54.529Z,28.70
2018-11-10T08:58:37.384Z,26.03
2018-11-10T09:01:19.280Z,26.17
2018-11-10T09:04:01.160Z,28.57
2018-11-10T09:06:44.095Z,27.20
2018-11-10T09:09:25.889Z,26.27
2018-11-10T09:12:08.975Z,23.77
2018-11-10T09:14:50.494Z,23.33
2018-11-10T09:17:32.052Z,27.90
2018-11-10T09:20:16.488Z,23.60
2018-11-10T09:22:58.378Z,24.10
2018-11-10T09:25:41.179Z,24.63
2018-11-10T09:28:22.563Z,21.53
2018-11-10T09:31:04.684Z,25.47
2018-11-10T09:33:46.441Z,25.43
2018-11-10T09:36:27.993Z,28.87
2018-11-10T09:39:09.635Z,22.57
2018-11-10T09:41:52.489Z,27.00
2018-11-10T09:44:34.362Z,22.53
2018-11-10T09:47:16.134Z,26.63
2018-11-10T09:49:58.101Z,24.17
2018-11-10T09:52:40.381Z,25.53
2018-11-10T09:55:22.188Z,28.90
2018-11-10T09:58:04.042Z,26.57
2018-11-10T10:00:46.226Z,23.67
2018-11-10T10:03:28.404Z,23.70
2018-11-10T10:06:09.923Z,22.37
2018-11-10T10:08:52.510Z,21.70
2018-11-10T10:11:36.245Z,25.37
2018-11-10T10:14:18.473Z,20.80
2018-11-10T10:17:00.414Z,23.57
2018-11-10T10:19:42.131Z,21.90
2018-11-10T10:22:24.124Z,20.73
2018-11-10T10:25:06.992Z,22.83
2018-11-10T10:27:48.919Z,20.43
2018-11-10T10:30:31.194Z,20.77
2018-11-10T10:33:12.851Z,21.83
2018-11-10T10:35:54.766Z,21.97
2018-11-10T10:38:37.052Z,20.23
2018-11-10T10:41:19.855Z,22.20
2018-11-10T10:44:02.496Z,21.47
2018-11-10T10:46:43.992Z,20.57
2018-11-10T10:49:26.286Z,22.47
2018-11-10T10:52:08.656Z,26.80
2018-11-10T10:54:50.683Z,20.63
2018-11-10T10:57:32.284Z,22.83
2018-11-10T11:00:19.899Z,23.87
2018-11-10T11:03:07.252Z,24.00
2018-11-10T11:05:55.284Z,22.40
2018-11-10T11:08:36.847Z,20.33
2018-11-10T11:11:18.224Z,20.93
2018-11-10T11:14:00.104Z,22.40
2018-11-10T11:16:42.175Z,22.23
2018-11-10T11:19:23.774Z,21.17
2018-11-10T11:22:05.860Z,22.73
2018-11-10T11:24:47.569Z,20.80
2018-11-10T11:27:29.081Z,20.53
2018-11-10T11:30:10.495Z,25.73
2018-11-10T11:32:52.280Z,21.73
2018-11-10T11:35:34.360Z,22.77
2018-11-10T11:38:15.789Z,23.17
2018-11-10T11:40:57.414Z,22.57
2018-11-10T11:43:39.848Z,23.63
2018-11-10T11:46:21.973Z,23.23
2018-11-10T11:49:04.563Z,23.67
2018-11-10T11:51:46.284Z,22.97
2018-11-10T11:54:27.834Z,24.73
2018-11-10T11:57:09.676Z,23.40
2018-11-10T11:59:51.225Z,25.87
2018-11-10T12:02:32.949Z,24.67
2018-11-10T12:05:15.760Z,27.43
2018-11-10T12:07:57.724Z,21.77
2018-11-10T12:10:39.425Z,24.13
2018-11-10T12:13:21.158Z,24.77
2018-11-10T12:16:03.124Z,23.80
2018-11-10T12:18:44.763Z,22.30
2018-11-10T12:21:27.066Z,22.40
2018-11-10T12:24:08.699Z,22.23
2018-11-10T12:26:50.297Z,23.83
2018-11-10T12:29:32.331Z,21.97
2018-11-10T12:32:14.612Z,21.27
2018-11-10T12:34:56.105Z,25.50
2018-11-10T12:37:37.896Z,22.50
2018-11-10T12:40:19.861Z,23.27
2018-11-10T12:43:01.540Z,21.63
2018-11-10T12:45:43.385Z,23.70
2018-11-10T12:48:25.388Z,23.70
2018-11-10T12:51:07.472Z,25.73
2018-11-10T12:53:49.307Z,21.60
2018-11-10T12:56:31.108Z,25.27
2018-11-10T12:59:12.945Z,23.90
2018-11-10T13:01:54.861Z,23.27
2018-11-10T13:04:36.564Z,20.90
2018-11-10T13:07:18.323Z,25.67
2018-11-10T13:10:00.077Z,25.17
2018-11-10T13:12:42.824Z,27.80
2018-11-10T13:15:24.695Z,24.87
2018-11-10T13:18:07.611Z,26.50
2018-11-10T13:20:49.278Z,26.03
2018-11-10T13:23:31.193Z,27.20
2018-11-10T13:26:13.388Z,26.53
2018-11-10T13:28:55.809Z,27.93
2018-11-10T13:31:37.887Z,27.50
2018-11-10T13:34:20.928Z,29.53
2018-11-10T13:37:02.983Z,28.80
2018-11-10T13:39:44.462Z,28.70
2018-11-10T13:42:26.586Z,30.23
2018-11-10T13:45:11.768Z,27.87
2018-11-10T13:47:53.680Z,31.13
2018-11-10T13:50:36.126Z,28.00
2018-11-10T13:53:18.666Z,31.40
2018-11-10T13:56:01.446Z,27.77
2018-11-10T13:58:43.710Z,29.30
2018-11-10T14:01:25.398Z,28.70
2018-11-10T14:04:06.990Z,32.33
2018-11-10T14:06:49.144Z,30.30
2018-11-10T14:09:32.122Z,31.27
2018-11-10T14:12:14.465Z,32.00
2018-11-10T14:14:56.215Z,31.27
2018-11-10T14:17:38.191Z,32.47
2018-11-10T14:20:20.163Z,30.87
2018-11-10T14:23:02.262Z,34.80
2018-11-10T14:25:44.724Z,34.70
2018-11-10T14:28:26.303Z,32.57
2018-11-10T14:31:08.082Z,33.13
2018-11-10T14:33:49.562Z,34.67
2018-11-10T14:36:31.327Z,36.90
2018-11-10T14:39:13.281Z,37.33
2018-11-10T14:41:56.140Z,33.60
2018-11-10T14:44:38.243Z,33.88
2018-11-10T14:47:19.933Z,34.03
2018-11-10T14:50:02.109Z,35.73
2018-11-10T14:52:44.400Z,31.10
2018-11-10T14:55:26.443Z,34.03
2018-11-10T14:58:08.658Z,34.80
2018-11-10T15:00:51.116Z,37.40
2018-11-10T15:03:33.009Z,35.48
2018-11-10T15:06:15.152Z,37.70
2018-11-10T15:08:56.809Z,38.80
2018-11-10T15:11:38.652Z,38.88
2018-11-10T15:14:20.897Z,35.90
2018-11-10T15:17:03.009Z,40.58
2018-11-10T15:19:45.364Z,39.78
2018-11-10T15:22:28.335Z,38.48
2018-11-10T15:25:11.927Z,35.92
2018-11-10T15:27:53.818Z,38.42
2018-11-10T15:30:36.160Z,41.55
2018-11-10T15:33:18.823Z,44.60
2018-11-10T15:36:01.136Z,41.50
2018-11-10T15:38:42.935Z,47.60
2018-11-10T15:41:25.743Z,43.00
2018-11-10T15:44:07.659Z,43.90
2018-11-10T15:46:50.398Z,42.58
2018-11-10T15:49:32.613Z,45.12
2018-11-10T15:52:15.024Z,41.58
2018-11-10T15:54:56.960Z,46.98
2018-11-10T15:57:40.547Z,42.93
2018-11-10T16:00:23.883Z,43.13
2018-11-10T16:03:06.296Z,43.33
2018-11-10T16:05:48.452Z,44.75
2018-11-10T16:08:30.454Z,48.48
2018-11-10T16:11:12.144Z,46.28
2018-11-10T16:13:55.575Z,47.50
2018-11-10T16:16:38.122Z,45.20
2018-11-10T16:19:19.979Z,51.85
2018-11-10T16:22:01.751Z,48.42
2018-11-10T16:24:43.817Z,45.83
2018-11-10T16:27:26.955Z,49.08
2018-11-10T16:30:13.134Z,46.85
2018-11-10T16:32:54.854Z,48.35
2018-11-10T16:35:37.279Z,52.75
2018-11-10T16:38:19.206Z,48.30
2018-11-10T16:41:01.465Z,50.60
2018-11-10T16:43:43.300Z,49.27
2018-11-10T16:46:25.172Z,56.65
2018-11-10T16:49:06.991Z,49.98
2018-11-10T16:51:49.617Z,48.58
2018-11-10T16:54:31.475Z,50.37
2018-11-10T16:57:13.460Z,50.35
2018-11-10T16:59:55.759Z,53.15
2018-11-10T17:02:38.172Z,52.50
2018-11-10T17:05:20.165Z,50.15
2018-11-10T17:08:02.266Z,50.33
2018-11-10T17:10:44.367Z,47.93
2018-11-10T17:13:26.100Z,49.23
2018-11-10T17:16:08.643Z,51.90
2018-11-10T17:18:52.166Z,49.53
2018-11-10T17:21:34.130Z,51.42
2018-11-10T17:24:15.852Z,49.70
2018-11-10T17:26:58.613Z,50.12
2018-11-10T17:29:40.412Z,50.88
2018-11-10T17:32:23.137Z,50.63
2018-11-10T17:35:06.304Z,53.25
2018-11-10T17:37:48.100Z,48.92
2018-11-10T17:40:30.620Z,50.92
2018-11-10T17:43:12.385Z,52.15
2018-11-10T17:45:54.532Z,48.70
2018-11-10T17:48:37.523Z,51.77
2018-11-10T17:51:19.728Z,52.70
2018-11-10T17:54:01.485Z,51.77
2018-11-10T17:56:43.842Z,53.78
2018-11-10T17:59:26.006Z,55.73
2018-11-10T18:02:08.954Z,53.80
2018-11-10T18:04:51.884Z,56.80
2018-11-10T18:07:34.011Z,57.00
2018-11-10T18:10:17.416Z,55.78
2018-11-10T18:12:59.532Z,56.30
2018-11-10T18:15:42.202Z,61.75
2018-11-10T18:18:24.028Z,61.65
2018-11-10T18:21:06.551Z,66.00
2018-11-10T18:23:48.718Z,67.47
2018-11-10T18:26:30.935Z,64.20
2018-11-10T18:29:13.364Z,67.90
2018-11-10T18:31:55.670Z,68.83
2018-11-10T18:34:37.655Z,66.60
2018-11-10T18:37:19.844Z,71.25
2018-11-10T18:40:02.165Z,78.62
2018-11-10T18:42:44.250Z,73.78
2018-11-10T18:45:26.323Z,74.92
2018-11-10T18:48:08.502Z,72.87
2018-11-10T18:50:52.091Z,71.35
2018-11-10T18:53:35.442Z,73.35
2018-11-10T18:56:17.181Z,73.78
2018-11-10T18:59:00.768Z,79.65
2018-11-10T19:01:42.611Z,68.55
2018-11-10T19:04:24.581Z,73.67
2018-11-10T19:07:07.761Z,75.30
2018-11-10T19:09:49.731Z,73.87
2018-11-10T19:12:32.142Z,74.37
2018-11-10T19:15:20.149Z,72.97
2018-11-10T19:18:06.506Z,72.35
2018-11-10T19:20:49.194Z,73.83
2018-11-10T19:23:31.425Z,72.45
2018-11-10T19:26:13.783Z,67.70
2018-11-10T19:28:55.508Z,74.65
2018-11-10T19:31:37.935Z,71.77
2018-11-10T19:34:19.755Z,76.55
2018-11-10T19:37:01.545Z,80.03
2018-11-10T19:39:43.504Z,75.87
2018-11-10T19:42:25.519Z,80.75
2018-11-10T19:45:09.234Z,72.78
2018-11-10T19:47:51.193Z,82.88
2018-11-10T19:50:33.607Z,75.87
2018-11-10T19:53:15.548Z,69.03
2018-11-10T19:55:57.321Z,72.50
2018-11-10T19:58:39.464Z,71.87
2018-11-10T20:01:22.008Z,75.75
2018-11-10T20:04:04.438Z,79.37
2018-11-10T20:06:47.289Z,78.25
2018-11-10T20:09:29.514Z,76.57
2018-11-10T20:12:11.378Z,78.72
2018-11-10T20:14:53.178Z,79.25
2018-11-10T20:17:35.311Z,73.35
2018-11-10T20:20:18.653Z,78.05
2018-11-10T20:23:00.028Z,80.70
2018-11-10T20:25:42.567Z,80.90
2018-11-10T20:28:24.377Z,74.05
2018-11-10T20:31:06.505Z,70.50
2018-11-10T20:33:48.730Z,68.87
2018-11-10T20:36:31.792Z,68.47
2018-11-10T20:39:13.725Z,65.67
2018-11-10T20:41:55.546Z,67.37
2018-11-10T20:44:37.400Z,69.60
2018-11-10T20:47:19.687Z,69.20
2018-11-10T20:50:01.924Z,72.65
2018-11-10T20:52:44.024Z,68.45
2018-11-10T20:55:26.460Z,73.45
2018-11-10T20:58:08.291Z,68.45
2018-11-10T21:00:50.736Z,71.53
2018-11-10T21:03:32.932Z,74.72
2018-11-10T21:06:15.130Z,76.22
2018-11-10T21:08:57.152Z,71.82
2018-11-10T21:11:39.504Z,72.95
2018-11-10T21:14:21.344Z,72.92
2018-11-10T21:17:03.075Z,73.90
2018-11-10T21:19:45.258Z,72.15
2018-11-10T21:22:27.013Z,72.62
2018-11-10T21:25:11.076Z,71.75
2018-11-10T21:27:53.195Z,74.65
2018-11-10T21:30:35.921Z,70.67
2018-11-10T21:33:18.348Z,78.12
2018-11-10T21:36:00.211Z,71.35
2018-11-10T21:38:42.543Z,71.72
2018-11-10T21:41:24.259Z,74.65
2018-11-10T21:44:06.684Z,72.40
2018-11-10T21:46:49.681Z,75.22
2018-11-10T21:49:31.652Z,72.35
2018-11-10T21:52:13.931Z,74.90
2018-11-10T21:54:55.968Z,69.55
2018-11-10T21:57:37.792Z,72.67
2018-11-10T22:00:21.853Z,76.35
2018-11-10T22:03:03.839Z,76.10
2018-11-10T22:05:45.552Z,75.22
2018-11-10T22:08:27.552Z,77.80
2018-11-10T22:11:09.639Z,74.65
2018-11-10T22:13:51.455Z,81.00
2018-11-10T22:16:33.605Z,71.95
2018-11-10T22:19:15.604Z,74.40
2018-11-10T22:21:57.251Z,71.85
2018-11-10T22:24:39.332Z,76.10
2018-11-10T22:27:21.343Z,70.35
2018-11-10T22:30:03.656Z,75.42
2018-11-10T22:32:46.588Z,74.07
2018-11-10T22:35:28.719Z,75.45
2018-11-10T22:38:11.243Z,68.65
2018-11-10T22:40:53.999Z,64.67
2018-11-10T22:43:35.880Z,66.97
2018-11-10T22:46:18.430Z,66.00
2018-11-10T22:49:00.604Z,64.05
2018-11-10T22:51:42.774Z,63.80
2018-11-10T22:54:25.386Z,63.83
2018-11-10T22:57:07.729Z,73.20
2018-11-10T22:59:51.155Z,63.87
2018-11-10T23:02:33.056Z,70.08
2018-11-10T23:05:15.376Z,64.30
2018-11-10T23:07:57.469Z,69.17
2018-11-10T23:10:39.479Z,66.65
2018-11-10T23:13:21.948Z,66.65
2018-11-10T23:16:04.552Z,68.10
2018-11-10T23:18:46.299Z,67.53
2018-11-10T23:21:28.032Z,69.58
2018-11-10T23:24:10.299Z,71.80
2018-11-10T23:26:52.287Z,65.32
2018-11-10T23:29:34.695Z,72.65
2018-11-10T23:32:17.368Z,72.70
2018-11-10T23:35:00.000Z,66.33
2018-11-10T23:37:42.389Z,71.25
2018-11-10T23:40:24.203Z,71.53
2018-11-10T23:43:06.112Z,65.40
2018-11-10T23:45:48.775Z,68.83
2018-11-10T23:48:30.939Z,72.00
2018-11-10T23:51:13.024Z,68.87
2018-11-10T23:53:55.262Z,72.85
2018-11-10T23:56:37.508Z,66.05
2018-11-10T23:59:19.695Z,63.75
